sensor_id;sensor_type;location;lat;lon;timestamp;P1;durP1;ratioP1;P2;durP2;ratioP2
23181;SDS011;11759;51.282;6.642;2022-07-22T00:00:30;23.80;;;12.27;;
23181;SDS011;11759;51.282;6.642;2022-07-22T00:02:57;25.25;;;12.45;;
23181;SDS011;11759;51.282;6.642;2022-07-22T00:05:24;26.58;;;13.38;;
23181;SDS011;11759;51.282;6.642;2022-07-22T00:07:51;27.02;;;13.68;;
23181;SDS011;11759;51.282;6.642;2022-07-22T00:10:18;33.72;;;13.35;;
23181;SDS011;11759;51.282;6.642;2022-07-22T00:12:45;23.15;;;13.02;;
23181;SDS011;11759;51.282;6.642;2022-07-22T00:15:11;28.88;;;13.45;;
23181;SDS011;11759;51.282;6.642;2022-07-22T00:17:39;34.92;;;13.52;;
23181;SDS011;11759;51.282;6.642;2022-07-22T00:20:06;35.00;;;14.07;;
23181;SDS011;11759;51.282;6.642;2022-07-22T00:22:33;31.92;;;14.10;;
23181;SDS011;11759;51.282;6.642;2022-07-22T00:25:00;34.70;;;14.88;;
23181;SDS011;11759;51.282;6.642;2022-07-22T00:27:27;26.65;;;13.27;;
23181;SDS011;11759;51.282;6.642;2022-07-22T00:29:54;30.23;;;15.18;;
23181;SDS011;11759;51.282;6.642;2022-07-22T00:32:20;30.92;;;13.40;;
23181;SDS011;11759;51.282;6.642;2022-07-22T00:34:47;33.28;;;13.98;;
23181;SDS011;11759;51.282;6.642;2022-07-22T00:37:14;30.88;;;14.65;;
23181;SDS011;11759;51.282;6.642;2022-07-22T00:39:40;36.95;;;13.77;;
23181;SDS011;11759;51.282;6.642;2022-07-22T00:42:07;38.35;;;15.27;;
23181;SDS011;11759;51.282;6.642;2022-07-22T00:44:34;33.53;;;15.23;;
23181;SDS011;11759;51.282;6.642;2022-07-22T00:47:05;29.40;;;15.32;;
23181;SDS011;11759;51.282;6.642;2022-07-22T00:49:32;35.85;;;15.40;;
23181;SDS011;11759;51.282;6.642;2022-07-22T00:51:58;36.13;;;15.52;;
23181;SDS011;11759;51.282;6.642;2022-07-22T00:54:25;33.20;;;15.45;;
23181;SDS011;11759;51.282;6.642;2022-07-22T00:56:53;34.08;;;15.23;;
23181;SDS011;11759;51.282;6.642;2022-07-22T00:59:21;33.25;;;14.52;;
23181;SDS011;11759;51.282;6.642;2022-07-22T01:01:47;28.20;;;14.98;;
23181;SDS011;11759;51.282;6.642;2022-07-22T01:04:14;33.35;;;16.27;;
23181;SDS011;11759;51.282;6.642;2022-07-22T01:06:41;29.67;;;16.00;;
23181;SDS011;11759;51.282;6.642;2022-07-22T01:09:11;34.78;;;15.38;;
23181;SDS011;11759;51.282;6.642;2022-07-22T01:11:39;24.63;;;14.20;;
23181;SDS011;11759;51.282;6.642;2022-07-22T01:14:06;27.75;;;15.45;;
23181;SDS011;11759;51.282;6.642;2022-07-22T01:16:33;31.42;;;15.25;;
23181;SDS011;11759;51.282;6.642;2022-07-22T01:18:59;35.20;;;15.05;;
23181;SDS011;11759;51.282;6.642;2022-07-22T01:21:27;29.30;;;15.32;;
23181;SDS011;11759;51.282;6.642;2022-07-22T01:23:53;33.35;;;14.95;;
23181;SDS011;11759;51.282;6.642;2022-07-22T01:26:20;31.10;;;15.80;;
23181;SDS011;11759;51.282;6.642;2022-07-22T01:28:48;42.53;;;15.63;;
23181;SDS011;11759;51.282;6.642;2022-07-22T01:31:14;29.38;;;14.20;;
23181;SDS011;11759;51.282;6.642;2022-07-22T01:33:41;33.03;;;15.65;;
23181;SDS011;11759;51.282;6.642;2022-07-22T01:36:08;36.22;;;15.30;;
23181;SDS011;11759;51.282;6.642;2022-07-22T01:38:35;24.70;;;13.80;;
23181;SDS011;11759;51.282;6.642;2022-07-22T01:41:02;29.20;;;13.95;;
23181;SDS011;11759;51.282;6.642;2022-07-22T01:43:29;26.20;;;14.30;;
23181;SDS011;11759;51.282;6.642;2022-07-22T01:45:56;24.67;;;14.38;;
23181;SDS011;11759;51.282;6.642;2022-07-22T01:48:23;31.02;;;13.63;;
23181;SDS011;11759;51.282;6.642;2022-07-22T01:50:50;31.15;;;13.63;;
23181;SDS011;11759;51.282;6.642;2022-07-22T01:53:17;30.40;;;13.63;;
23181;SDS011;11759;51.282;6.642;2022-07-22T01:55:45;29.85;;;13.50;;
23181;SDS011;11759;51.282;6.642;2022-07-22T01:58:12;23.70;;;13.07;;
23181;SDS011;11759;51.282;6.642;2022-07-22T02:00:40;29.80;;;12.55;;
23181;SDS011;11759;51.282;6.642;2022-07-22T02:03:07;22.30;;;12.07;;
23181;SDS011;11759;51.282;6.642;2022-07-22T02:05:33;24.60;;;12.45;;
23181;SDS011;11759;51.282;6.642;2022-07-22T02:08:08;28.52;;;12.35;;
23181;SDS011;11759;51.282;6.642;2022-07-22T02:10:54;28.98;;;11.60;;
23181;SDS011;11759;51.282;6.642;2022-07-22T02:13:21;24.85;;;12.15;;
23181;SDS011;11759;51.282;6.642;2022-07-22T02:15:48;20.83;;;10.93;;
23181;SDS011;11759;51.282;6.642;2022-07-22T02:18:16;29.08;;;10.55;;
23181;SDS011;11759;51.282;6.642;2022-07-22T02:20:44;24.95;;;10.52;;
23181;SDS011;11759;51.282;6.642;2022-07-22T02:23:12;29.50;;;11.82;;
23181;SDS011;11759;51.282;6.642;2022-07-22T02:25:39;23.52;;;10.70;;
23181;SDS011;11759;51.282;6.642;2022-07-22T02:28:07;24.10;;;10.55;;
23181;SDS011;11759;51.282;6.642;2022-07-22T02:30:35;24.10;;;10.15;;
23181;SDS011;11759;51.282;6.642;2022-07-22T02:33:02;27.67;;;10.15;;
23181;SDS011;11759;51.282;6.642;2022-07-22T02:35:29;26.73;;;10.13;;
23181;SDS011;11759;51.282;6.642;2022-07-22T02:37:57;26.13;;;9.55;;
23181;SDS011;11759;51.282;6.642;2022-07-22T02:40:24;31.42;;;9.40;;
23181;SDS011;11759;51.282;6.642;2022-07-22T02:42:51;28.33;;;9.55;;
23181;SDS011;11759;51.282;6.642;2022-07-22T02:45:18;20.48;;;8.80;;
23181;SDS011;11759;51.282;6.642;2022-07-22T02:47:48;20.77;;;9.05;;
23181;SDS011;11759;51.282;6.642;2022-07-22T02:50:16;25.85;;;9.20;;
23181;SDS011;11759;51.282;6.642;2022-07-22T02:52:43;21.65;;;9.93;;
23181;SDS011;11759;51.282;6.642;2022-07-22T02:55:12;23.45;;;9.60;;
23181;SDS011;11759;51.282;6.642;2022-07-22T02:57:38;27.23;;;9.27;;
23181;SDS011;11759;51.282;6.642;2022-07-22T03:00:06;26.40;;;9.55;;
23181;SDS011;11759;51.282;6.642;2022-07-22T03:02:35;24.55;;;10.35;;
23181;SDS011;11759;51.282;6.642;2022-07-22T03:05:04;32.50;;;10.43;;
23181;SDS011;11759;51.282;6.642;2022-07-22T03:07:34;19.40;;;9.82;;
23181;SDS011;11759;51.282;6.642;2022-07-22T03:10:01;26.27;;;10.65;;
23181;SDS011;11759;51.282;6.642;2022-07-22T03:12:31;27.95;;;11.32;;
23181;SDS011;11759;51.282;6.642;2022-07-22T03:14:57;23.95;;;10.85;;
23181;SDS011;11759;51.282;6.642;2022-07-22T03:17:25;21.65;;;10.68;;
23181;SDS011;11759;51.282;6.642;2022-07-22T03:19:51;17.60;;;9.05;;
23181;SDS011;11759;51.282;6.642;2022-07-22T03:22:18;19.88;;;10.10;;
23181;SDS011;11759;51.282;6.642;2022-07-22T03:24:44;19.90;;;10.13;;
23181;SDS011;11759;51.282;6.642;2022-07-22T03:27:11;26.45;;;10.05;;
23181;SDS011;11759;51.282;6.642;2022-07-22T03:29:38;28.08;;;10.55;;
23181;SDS011;11759;51.282;6.642;2022-07-22T03:32:04;29.15;;;10.68;;
23181;SDS011;11759;51.282;6.642;2022-07-22T03:34:38;24.30;;;9.95;;
23181;SDS011;11759;51.282;6.642;2022-07-22T03:37:06;21.23;;;9.70;;
23181;SDS011;11759;51.282;6.642;2022-07-22T03:39:34;20.70;;;9.65;;
23181;SDS011;11759;51.282;6.642;2022-07-22T03:42:01;21.80;;;9.82;;
23181;SDS011;11759;51.282;6.642;2022-07-22T03:44:30;21.27;;;8.70;;
23181;SDS011;11759;51.282;6.642;2022-07-22T03:46:57;24.10;;;8.98;;
23181;SDS011;11759;51.282;6.642;2022-07-22T03:49:24;19.67;;;8.65;;
23181;SDS011;11759;51.282;6.642;2022-07-22T03:51:51;16.63;;;7.72;;
23181;SDS011;11759;51.282;6.642;2022-07-22T03:54:19;18.25;;;7.70;;
23181;SDS011;11759;51.282;6.642;2022-07-22T03:56:45;18.92;;;7.32;;
23181;SDS011;11759;51.282;6.642;2022-07-22T03:59:14;22.08;;;7.38;;
23181;SDS011;11759;51.282;6.642;2022-07-22T04:01:41;17.65;;;7.18;;
23181;SDS011;11759;51.282;6.642;2022-07-22T04:04:10;13.93;;;7.78;;
23181;SDS011;11759;51.282;6.642;2022-07-22T04:06:41;19.13;;;6.70;;
23181;SDS011;11759;51.282;6.642;2022-07-22T04:09:17;16.25;;;5.78;;
23181;SDS011;11759;51.282;6.642;2022-07-22T04:11:44;17.75;;;5.10;;
23181;SDS011;11759;51.282;6.642;2022-07-22T04:14:12;14.88;;;5.50;;
23181;SDS011;11759;51.282;6.642;2022-07-22T04:16:39;21.77;;;5.97;;
23181;SDS011;11759;51.282;6.642;2022-07-22T04:19:08;13.82;;;5.72;;
23181;SDS011;11759;51.282;6.642;2022-07-22T04:21:57;15.30;;;5.80;;
23181;SDS011;11759;51.282;6.642;2022-07-22T04:24:26;12.23;;;5.35;;
23181;SDS011;11759;51.282;6.642;2022-07-22T04:26:54;8.88;;;5.45;;
23181;SDS011;11759;51.282;6.642;2022-07-22T04:29:22;13.93;;;5.55;;
23181;SDS011;11759;51.282;6.642;2022-07-22T04:31:49;16.88;;;5.43;;
23181;SDS011;11759;51.282;6.642;2022-07-22T04:34:18;18.33;;;6.10;;
23181;SDS011;11759;51.282;6.642;2022-07-22T04:36:46;17.00;;;5.43;;
23181;SDS011;11759;51.282;6.642;2022-07-22T04:39:13;17.10;;;5.20;;
23181;SDS011;11759;51.282;6.642;2022-07-22T04:41:46;10.70;;;5.00;;
23181;SDS011;11759;51.282;6.642;2022-07-22T04:44:16;17.88;;;5.35;;
23181;SDS011;11759;51.282;6.642;2022-07-22T04:46:43;17.65;;;5.57;;
23181;SDS011;11759;51.282;6.642;2022-07-22T04:49:10;16.40;;;5.05;;
23181;SDS011;11759;51.282;6.642;2022-07-22T04:51:36;14.50;;;5.18;;
23181;SDS011;11759;51.282;6.642;2022-07-22T04:56:38;11.77;;;4.93;;
23181;SDS011;11759;51.282;6.642;2022-07-22T04:59:07;21.33;;;5.22;;
23181;SDS011;11759;51.282;6.642;2022-07-22T05:01:35;11.23;;;4.60;;
23181;SDS011;11759;51.282;6.642;2022-07-22T05:04:03;12.38;;;4.85;;
23181;SDS011;11759;51.282;6.642;2022-07-22T05:06:30;16.40;;;4.68;;
23181;SDS011;11759;51.282;6.642;2022-07-22T05:08:57;17.45;;;4.57;;
23181;SDS011;11759;51.282;6.642;2022-07-22T05:11:28;9.40;;;3.83;;
23181;SDS011;11759;51.282;6.642;2022-07-22T05:13:55;13.38;;;4.18;;
23181;SDS011;11759;51.282;6.642;2022-07-22T05:16:21;11.23;;;3.85;;
23181;SDS011;11759;51.282;6.642;2022-07-22T05:18:50;15.75;;;3.60;;
23181;SDS011;11759;51.282;6.642;2022-07-22T05:21:17;19.17;;;4.70;;
23181;SDS011;11759;51.282;6.642;2022-07-22T05:23:44;14.93;;;3.53;;
23181;SDS011;11759;51.282;6.642;2022-07-22T05:26:13;13.18;;;3.72;;
23181;SDS011;11759;51.282;6.642;2022-07-22T05:28:39;17.58;;;3.60;;
23181;SDS011;11759;51.282;6.642;2022-07-22T05:31:06;11.25;;;3.42;;
23181;SDS011;11759;51.282;6.642;2022-07-22T05:33:35;10.10;;;3.30;;
23181;SDS011;11759;51.282;6.642;2022-07-22T05:36:04;12.55;;;3.83;;
23181;SDS011;11759;51.282;6.642;2022-07-22T05:38:39;8.95;;;3.58;;
23181;SDS011;11759;51.282;6.642;2022-07-22T05:41:06;11.30;;;3.42;;
23181;SDS011;11759;51.282;6.642;2022-07-22T05:43:33;11.98;;;3.25;;
23181;SDS011;11759;51.282;6.642;2022-07-22T05:46:03;14.10;;;3.88;;
23181;SDS011;11759;51.282;6.642;2022-07-22T05:48:30;13.40;;;3.40;;
23181;SDS011;11759;51.282;6.642;2022-07-22T05:50:57;13.80;;;3.33;;
23181;SDS011;11759;51.282;6.642;2022-07-22T05:53:23;15.73;;;3.80;;
23181;SDS011;11759;51.282;6.642;2022-07-22T05:55:50;10.07;;;3.90;;
23181;SDS011;11759;51.282;6.642;2022-07-22T05:58:17;8.43;;;3.47;;
23181;SDS011;11759;51.282;6.642;2022-07-22T06:00:43;10.27;;;3.55;;
23181;SDS011;11759;51.282;6.642;2022-07-22T06:03:10;16.73;;;3.80;;
23181;SDS011;11759;51.282;6.642;2022-07-22T06:05:43;13.55;;;4.15;;
23181;SDS011;11759;51.282;6.642;2022-07-22T06:08:11;6.88;;;3.47;;
23181;SDS011;11759;51.282;6.642;2022-07-22T06:10:42;17.55;;;3.80;;
23181;SDS011;11759;51.282;6.642;2022-07-22T06:13:08;10.07;;;3.83;;
23181;SDS011;11759;51.282;6.642;2022-07-22T06:15:37;18.35;;;3.85;;
23181;SDS011;11759;51.282;6.642;2022-07-22T06:18:05;17.48;;;3.88;;
23181;SDS011;11759;51.282;6.642;2022-07-22T06:20:31;10.60;;;3.50;;
23181;SDS011;11759;51.282;6.642;2022-07-22T06:22:58;13.55;;;4.43;;
23181;SDS011;11759;51.282;6.642;2022-07-22T06:25:25;14.85;;;4.30;;
23181;SDS011;11759;51.282;6.642;2022-07-22T06:28:20;14.30;;;4.07;;
23181;SDS011;11759;51.282;6.642;2022-07-22T06:30:47;19.13;;;3.75;;
23181;SDS011;11759;51.282;6.642;2022-07-22T06:33:16;15.88;;;5.82;;
23181;SDS011;11759;51.282;6.642;2022-07-22T06:35:43;20.67;;;7.03;;
23181;SDS011;11759;51.282;6.642;2022-07-22T06:38:10;20.48;;;5.80;;
23181;SDS011;11759;51.282;6.642;2022-07-22T06:41:20;17.58;;;5.72;;
23181;SDS011;11759;51.282;6.642;2022-07-22T06:44:10;21.60;;;7.80;;
23181;SDS011;11759;51.282;6.642;2022-07-22T06:46:46;20.52;;;7.53;;
23181;SDS011;11759;51.282;6.642;2022-07-22T06:49:16;20.20;;;7.80;;
23181;SDS011;11759;51.282;6.642;2022-07-22T06:51:44;18.15;;;7.18;;
23181;SDS011;11759;51.282;6.642;2022-07-22T06:54:11;17.52;;;8.07;;
23181;SDS011;11759;51.282;6.642;2022-07-22T06:56:38;19.17;;;7.53;;
23181;SDS011;11759;51.282;6.642;2022-07-22T06:59:07;18.98;;;7.65;;
23181;SDS011;11759;51.282;6.642;2022-07-22T07:01:35;18.63;;;7.20;;
23181;SDS011;11759;51.282;6.642;2022-07-22T07:04:02;19.50;;;7.72;;
23181;SDS011;11759;51.282;6.642;2022-07-22T07:06:29;21.42;;;8.35;;
23181;SDS011;11759;51.282;6.642;2022-07-22T07:09:08;15.63;;;8.02;;
23181;SDS011;11759;51.282;6.642;2022-07-22T07:11:36;22.50;;;8.85;;
23181;SDS011;11759;51.282;6.642;2022-07-22T07:14:12;22.60;;;9.00;;
23181;SDS011;11759;51.282;6.642;2022-07-22T07:16:38;24.65;;;8.00;;
23181;SDS011;11759;51.282;6.642;2022-07-22T07:19:05;25.58;;;8.23;;
23181;SDS011;11759;51.282;6.642;2022-07-22T07:21:32;18.15;;;7.57;;
23181;SDS011;11759;51.282;6.642;2022-07-22T07:23:59;17.17;;;7.85;;
23181;SDS011;11759;51.282;6.642;2022-07-22T07:26:26;16.33;;;7.47;;
23181;SDS011;11759;51.282;6.642;2022-07-22T07:28:52;18.50;;;7.60;;
23181;SDS011;11759;51.282;6.642;2022-07-22T07:31:27;22.50;;;8.20;;
23181;SDS011;11759;51.282;6.642;2022-07-22T07:33:56;16.55;;;7.13;;
23181;SDS011;11759;51.282;6.642;2022-07-22T07:36:23;15.05;;;6.63;;
23181;SDS011;11759;51.282;6.642;2022-07-22T07:38:50;18.00;;;6.78;;
23181;SDS011;11759;51.282;6.642;2022-07-22T07:41:17;12.02;;;6.40;;
23181;SDS011;11759;51.282;6.642;2022-07-22T07:43:49;15.38;;;7.00;;
23181;SDS011;11759;51.282;6.642;2022-07-22T07:46:17;15.45;;;5.20;;
23181;SDS011;11759;51.282;6.642;2022-07-22T07:48:44;12.35;;;5.30;;
23181;SDS011;11759;51.282;6.642;2022-07-22T07:51:11;13.10;;;5.63;;
23181;SDS011;11759;51.282;6.642;2022-07-22T07:53:40;16.33;;;6.30;;
23181;SDS011;11759;51.282;6.642;2022-07-22T07:56:08;17.92;;;6.35;;
23181;SDS011;11759;51.282;6.642;2022-07-22T07:58:35;18.27;;;5.72;;
23181;SDS011;11759;51.282;6.642;2022-07-22T08:01:06;12.05;;;5.30;;
23181;SDS011;11759;51.282;6.642;2022-07-22T08:03:34;8.73;;;3.90;;
23181;SDS011;11759;51.282;6.642;2022-07-22T08:06:02;9.15;;;3.92;;
23181;SDS011;11759;51.282;6.642;2022-07-22T08:08:29;14.10;;;5.20;;
23181;SDS011;11759;51.282;6.642;2022-07-22T08:11:03;13.95;;;4.85;;
23181;SDS011;11759;51.282;6.642;2022-07-22T08:13:56;11.65;;;5.28;;
23181;SDS011;11759;51.282;6.642;2022-07-22T08:16:58;12.52;;;4.60;;
23181;SDS011;11759;51.282;6.642;2022-07-22T08:19:25;10.20;;;4.60;;
23181;SDS011;11759;51.282;6.642;2022-07-22T08:21:53;11.02;;;3.80;;
23181;SDS011;11759;51.282;6.642;2022-07-22T08:24:26;13.77;;;4.95;;
23181;SDS011;11759;51.282;6.642;2022-07-22T08:26:54;10.63;;;3.88;;
23181;SDS011;11759;51.282;6.642;2022-07-22T08:29:21;12.48;;;4.53;;
23181;SDS011;11759;51.282;6.642;2022-07-22T08:31:48;11.70;;;4.03;;
23181;SDS011;11759;51.282;6.642;2022-07-22T08:34:17;11.95;;;3.78;;
23181;SDS011;11759;51.282;6.642;2022-07-22T08:36:44;10.52;;;3.78;;
23181;SDS011;11759;51.282;6.642;2022-07-22T08:39:11;16.25;;;4.35;;
23181;SDS011;11759;51.282;6.642;2022-07-22T08:41:45;8.27;;;3.80;;
23181;SDS011;11759;51.282;6.642;2022-07-22T08:44:12;9.60;;;3.53;;
23181;SDS011;11759;51.282;6.642;2022-07-22T08:46:39;10.13;;;3.97;;
23181;SDS011;11759;51.282;6.642;2022-07-22T08:49:30;9.43;;;3.20;;
23181;SDS011;11759;51.282;6.642;2022-07-22T08:52:02;10.50;;;2.90;;
23181;SDS011;11759;51.282;6.642;2022-07-22T08:54:35;16.33;;;3.95;;
23181;SDS011;11759;51.282;6.642;2022-07-22T08:57:03;12.70;;;3.70;;
23181;SDS011;11759;51.282;6.642;2022-07-22T08:59:30;14.75;;;3.50;;
23181;SDS011;11759;51.282;6.642;2022-07-22T09:02:02;10.82;;;2.95;;
23181;SDS011;11759;51.282;6.642;2022-07-22T09:04:54;9.40;;;3.45;;
23181;SDS011;11759;51.282;6.642;2022-07-22T09:07:48;11.65;;;4.18;;
23181;SDS011;11759;51.282;6.642;2022-07-22T09:10:22;16.40;;;4.20;;
23181;SDS011;11759;51.282;6.642;2022-07-22T09:13:08;13.48;;;5.10;;
23181;SDS011;11759;51.282;6.642;2022-07-22T09:15:48;12.98;;;4.32;;
23181;SDS011;11759;51.282;6.642;2022-07-22T09:21:28;21.15;;;5.28;;
23181;SDS011;11759;51.282;6.642;2022-07-22T09:24:30;11.45;;;5.47;;
23181;SDS011;11759;51.282;6.642;2022-07-22T09:27:24;14.32;;;5.57;;
23181;SDS011;11759;51.282;6.642;2022-07-22T09:30:16;13.68;;;6.32;;
23181;SDS011;11759;51.282;6.642;2022-07-22T09:32:53;15.93;;;6.55;;
23181;SDS011;11759;51.282;6.642;2022-07-22T09:35:41;18.13;;;7.25;;
23181;SDS011;11759;51.282;6.642;2022-07-22T09:38:18;30.70;;;10.05;;
23181;SDS011;11759;51.282;6.642;2022-07-22T09:40:47;22.85;;;9.80;;
23181;SDS011;11759;51.282;6.642;2022-07-22T09:43:18;19.80;;;9.77;;
23181;SDS011;11759;51.282;6.642;2022-07-22T09:48:18;19.73;;;9.60;;
23181;SDS011;11759;51.282;6.642;2022-07-22T09:50:46;21.13;;;11.43;;
23181;SDS011;11759;51.282;6.642;2022-07-22T09:53:17;27.63;;;12.73;;
23181;SDS011;11759;51.282;6.642;2022-07-22T09:56:03;21.40;;;12.40;;
23181;SDS011;11759;51.282;6.642;2022-07-22T09:58:32;24.92;;;12.45;;
23181;SDS011;11759;51.282;6.642;2022-07-22T10:01:03;25.42;;;12.07;;
23181;SDS011;11759;51.282;6.642;2022-07-22T10:03:32;18.38;;;11.68;;
23181;SDS011;11759;51.282;6.642;2022-07-22T10:06:01;24.95;;;12.13;;
23181;SDS011;11759;51.282;6.642;2022-07-22T10:08:30;32.17;;;11.30;;
23181;SDS011;11759;51.282;6.642;2022-07-22T10:11:02;21.65;;;10.15;;
23181;SDS011;11759;51.282;6.642;2022-07-22T10:13:30;22.65;;;11.75;;
23181;SDS011;11759;51.282;6.642;2022-07-22T10:15:58;24.30;;;11.45;;
23181;SDS011;11759;51.282;6.642;2022-07-22T10:18:26;23.58;;;11.02;;
23181;SDS011;11759;51.282;6.642;2022-07-22T10:21:00;22.17;;;11.13;;
23181;SDS011;11759;51.282;6.642;2022-07-22T10:23:28;25.02;;;12.40;;
23181;SDS011;11759;51.282;6.642;2022-07-22T10:25:58;23.17;;;12.27;;
23181;SDS011;11759;51.282;6.642;2022-07-22T10:28:29;22.92;;;11.60;;
23181;SDS011;11759;51.282;6.642;2022-07-22T10:33:40;24.25;;;13.43;;
23181;SDS011;11759;51.282;6.642;2022-07-22T10:36:07;25.10;;;12.00;;
23181;SDS011;11759;51.282;6.642;2022-07-22T10:38:36;22.83;;;12.27;;
23181;SDS011;11759;51.282;6.642;2022-07-22T10:41:04;18.38;;;10.18;;
23181;SDS011;11759;51.282;6.642;2022-07-22T10:46:06;22.35;;;11.85;;
23181;SDS011;11759;51.282;6.642;2022-07-22T10:51:07;13.80;;;9.30;;
23181;SDS011;11759;51.282;6.642;2022-07-22T10:53:44;14.32;;;8.73;;
23181;SDS011;11759;51.282;6.642;2022-07-22T10:56:23;16.52;;;8.65;;
23181;SDS011;11759;51.282;6.642;2022-07-22T11:01:23;17.40;;;8.98;;
23181;SDS011;11759;51.282;6.642;2022-07-22T11:03:51;18.23;;;9.68;;
23181;SDS011;11759;51.282;6.642;2022-07-22T11:06:29;16.60;;;8.88;;
23181;SDS011;11759;51.282;6.642;2022-07-22T11:09:00;17.75;;;9.77;;
23181;SDS011;11759;51.282;6.642;2022-07-22T11:16:54;17.05;;;10.15;;
23181;SDS011;11759;51.282;6.642;2022-07-22T11:19:26;19.38;;;10.90;;
23181;SDS011;11759;51.282;6.642;2022-07-22T11:21:55;21.17;;;10.32;;
23181;SDS011;11759;51.282;6.642;2022-07-22T11:24:24;17.05;;;9.48;;
23181;SDS011;11759;51.282;6.642;2022-07-22T11:26:53;18.75;;;10.68;;
23181;SDS011;11759;51.282;6.642;2022-07-22T11:29:28;17.08;;;9.90;;
23181;SDS011;11759;51.282;6.642;2022-07-22T11:32:08;17.15;;;10.13;;
23181;SDS011;11759;51.282;6.642;2022-07-22T11:34:37;16.23;;;9.38;;
23181;SDS011;11759;51.282;6.642;2022-07-22T11:37:08;17.17;;;9.25;;
23181;SDS011;11759;51.282;6.642;2022-07-22T11:39:35;18.08;;;9.38;;
23181;SDS011;11759;51.282;6.642;2022-07-22T11:42:02;13.90;;;8.75;;
23181;SDS011;11759;51.282;6.642;2022-07-22T11:44:30;13.35;;;8.60;;
23181;SDS011;11759;51.282;6.642;2022-07-22T11:46:58;16.27;;;8.48;;
23181;SDS011;11759;51.282;6.642;2022-07-22T11:49:26;14.75;;;8.52;;
23181;SDS011;11759;51.282;6.642;2022-07-22T11:51:53;13.68;;;8.38;;
23181;SDS011;11759;51.282;6.642;2022-07-22T11:54:20;11.43;;;7.93;;
23181;SDS011;11759;51.282;6.642;2022-07-22T11:56:47;12.75;;;7.70;;
23181;SDS011;11759;51.282;6.642;2022-07-22T11:59:22;11.00;;;7.28;;
23181;SDS011;11759;51.282;6.642;2022-07-22T12:01:49;10.20;;;6.20;;
23181;SDS011;11759;51.282;6.642;2022-07-22T12:04:18;13.10;;;6.70;;
23181;SDS011;11759;51.282;6.642;2022-07-22T12:06:46;10.70;;;6.95;;
23181;SDS011;11759;51.282;6.642;2022-07-22T12:11:42;14.05;;;6.93;;
23181;SDS011;11759;51.282;6.642;2022-07-22T12:14:11;11.18;;;7.85;;
23181;SDS011;11759;51.282;6.642;2022-07-22T12:19:19;13.00;;;8.15;;
23181;SDS011;11759;51.282;6.642;2022-07-22T12:24:27;15.77;;;9.73;;
23181;SDS011;11759;51.282;6.642;2022-07-22T12:26:56;18.83;;;9.98;;
23181;SDS011;11759;51.282;6.642;2022-07-22T12:29:31;14.77;;;9.68;;
23181;SDS011;11759;51.282;6.642;2022-07-22T12:32:10;18.30;;;10.02;;
23181;SDS011;11759;51.282;6.642;2022-07-22T12:34:42;15.40;;;8.90;;
23181;SDS011;11759;51.282;6.642;2022-07-22T12:37:12;15.73;;;9.65;;
23181;SDS011;11759;51.282;6.642;2022-07-22T12:40:07;12.10;;;8.70;;
23181;SDS011;11759;51.282;6.642;2022-07-22T12:42:35;16.20;;;9.25;;
23181;SDS011;11759;51.282;6.642;2022-07-22T12:45:08;15.05;;;8.77;;
23181;SDS011;11759;51.282;6.642;2022-07-22T12:47:53;12.90;;;7.88;;
23181;SDS011;11759;51.282;6.642;2022-07-22T12:53:07;13.75;;;7.75;;
23181;SDS011;11759;51.282;6.642;2022-07-22T12:55:45;10.82;;;6.47;;
23181;SDS011;11759;51.282;6.642;2022-07-22T12:58:14;10.95;;;6.47;;
23181;SDS011;11759;51.282;6.642;2022-07-22T13:00:44;9.55;;;5.70;;
23181;SDS011;11759;51.282;6.642;2022-07-22T13:03:12;10.63;;;5.93;;
23181;SDS011;11759;51.282;6.642;2022-07-22T13:05:39;13.35;;;6.32;;
23181;SDS011;11759;51.282;6.642;2022-07-22T13:08:07;8.43;;;4.80;;
23181;SDS011;11759;51.282;6.642;2022-07-22T13:10:35;9.52;;;4.00;;
23181;SDS011;11759;51.282;6.642;2022-07-22T13:13:04;7.38;;;4.80;;
23181;SDS011;11759;51.282;6.642;2022-07-22T13:15:32;9.30;;;4.95;;
23181;SDS011;11759;51.282;6.642;2022-07-22T13:17:59;9.00;;;4.60;;
23181;SDS011;11759;51.282;6.642;2022-07-22T13:20:26;8.85;;;4.53;;
23181;SDS011;11759;51.282;6.642;2022-07-22T13:22:52;10.25;;;5.70;;
23181;SDS011;11759;51.282;6.642;2022-07-22T13:25:19;9.27;;;5.57;;
23181;SDS011;11759;51.282;6.642;2022-07-22T13:27:46;13.13;;;6.03;;
23181;SDS011;11759;51.282;6.642;2022-07-22T13:30:12;9.90;;;5.60;;
23181;SDS011;11759;51.282;6.642;2022-07-22T13:32:39;11.43;;;6.35;;
23181;SDS011;11759;51.282;6.642;2022-07-22T13:35:14;9.80;;;6.07;;
23181;SDS011;11759;51.282;6.642;2022-07-22T13:37:42;11.15;;;5.93;;
23181;SDS011;11759;51.282;6.642;2022-07-22T13:40:09;13.05;;;6.03;;
23181;SDS011;11759;51.282;6.642;2022-07-22T13:42:36;8.68;;;4.90;;
23181;SDS011;11759;51.282;6.642;2022-07-22T13:45:03;9.10;;;4.80;;
23181;SDS011;11759;51.282;6.642;2022-07-22T13:47:31;11.45;;;4.80;;
23181;SDS011;11759;51.282;6.642;2022-07-22T13:49:58;7.40;;;4.53;;
23181;SDS011;11759;51.282;6.642;2022-07-22T13:52:24;9.40;;;4.75;;
23181;SDS011;11759;51.282;6.642;2022-07-22T13:54:51;8.23;;;5.25;;
23181;SDS011;11759;51.282;6.642;2022-07-22T13:57:18;9.60;;;5.00;;
23181;SDS011;11759;51.282;6.642;2022-07-22T13:59:45;9.90;;;6.20;;
23181;SDS011;11759;51.282;6.642;2022-07-22T14:02:12;9.90;;;5.55;;
23181;SDS011;11759;51.282;6.642;2022-07-22T14:04:39;12.18;;;5.40;;
23181;SDS011;11759;51.282;6.642;2022-07-22T14:07:06;9.98;;;5.70;;
23181;SDS011;11759;51.282;6.642;2022-07-22T14:09:37;9.20;;;5.13;;
23181;SDS011;11759;51.282;6.642;2022-07-22T14:12:04;8.32;;;4.75;;
23181;SDS011;11759;51.282;6.642;2022-07-22T14:14:31;9.70;;;4.65;;
23181;SDS011;11759;51.282;6.642;2022-07-22T14:16:58;5.57;;;3.50;;
23181;SDS011;11759;51.282;6.642;2022-07-22T14:19:28;9.10;;;3.95;;
23181;SDS011;11759;51.282;6.642;2022-07-22T14:21:55;7.68;;;3.50;;
23181;SDS011;11759;51.282;6.642;2022-07-22T14:24:21;6.45;;;3.50;;
23181;SDS011;11759;51.282;6.642;2022-07-22T14:26:49;4.70;;;2.70;;
23181;SDS011;11759;51.282;6.642;2022-07-22T14:29:15;5.45;;;2.83;;
23181;SDS011;11759;51.282;6.642;2022-07-22T14:31:42;5.82;;;3.10;;
23181;SDS011;11759;51.282;6.642;2022-07-22T14:34:09;8.55;;;3.67;;
23181;SDS011;11759;51.282;6.642;2022-07-22T14:36:35;4.30;;;2.75;;
23181;SDS011;11759;51.282;6.642;2022-07-22T14:39:02;11.93;;;4.70;;
23181;SDS011;11759;51.282;6.642;2022-07-22T14:41:29;8.27;;;3.50;;
23181;SDS011;11759;51.282;6.642;2022-07-22T14:43:56;7.30;;;3.28;;
23181;SDS011;11759;51.282;6.642;2022-07-22T14:46:23;6.43;;;4.05;;
23181;SDS011;11759;51.282;6.642;2022-07-22T14:48:50;7.22;;;3.80;;
23181;SDS011;11759;51.282;6.642;2022-07-22T14:51:20;5.82;;;3.50;;
23181;SDS011;11759;51.282;6.642;2022-07-22T14:53:47;5.13;;;3.33;;
23181;SDS011;11759;51.282;6.642;2022-07-22T14:56:14;7.93;;;3.97;;
23181;SDS011;11759;51.282;6.642;2022-07-22T14:58:41;7.45;;;2.97;;
23181;SDS011;11759;51.282;6.642;2022-07-22T15:01:08;5.95;;;3.10;;
23181;SDS011;11759;51.282;6.642;2022-07-22T15:03:34;7.38;;;3.83;;
23181;SDS011;11759;51.282;6.642;2022-07-22T15:06:01;5.57;;;3.33;;
23181;SDS011;11759;51.282;6.642;2022-07-22T15:08:28;6.25;;;3.13;;
23181;SDS011;11759;51.282;6.642;2022-07-22T15:10:54;5.95;;;3.40;;
23181;SDS011;11759;51.282;6.642;2022-07-22T15:13:21;6.22;;;2.78;;
23181;SDS011;11759;51.282;6.642;2022-07-22T15:15:53;5.40;;;3.13;;
23181;SDS011;11759;51.282;6.642;2022-07-22T15:18:20;8.52;;;3.72;;
23181;SDS011;11759;51.282;6.642;2022-07-22T15:20:47;6.55;;;3.42;;